createdAt,value
2022-08-31T00:02:13.249Z,4.67
2022-08-31T00:04:42.938Z,4.93
2022-08-31T00:07:11.378Z,4.47
2022-08-31T00:09:39.790Z,4.40
2022-08-31T00:12:08.347Z,4.80
2022-08-31T00:14:37.644Z,3.87
2022-08-31T00:17:06.369Z,4.87
2022-08-31T00:19:34.958Z,4.90
2022-08-31T00:22:03.701Z,4.27
2022-08-31T00:24:32.985Z,4.30
2022-08-31T00:27:01.636Z,4.37
2022-08-31T00:29:30.004Z,4.53
2022-08-31T00:31:58.508Z,4.90
2022-08-31T00:34:28.808Z,3.90
2022-08-31T00:36:57.276Z,4.10
2022-08-31T00:39:25.620Z,4.10
2022-08-31T00:41:54.119Z,4.67
2022-08-31T00:44:23.026Z,3.80
2022-08-31T00:46:52.500Z,4.00
2022-08-31T00:49:25.771Z,4.67
2022-08-31T00:52:05.931Z,4.20
2022-08-31T00:54:51.202Z,4.10
2022-08-31T00:57:20.880Z,3.90
2022-08-31T01:00:06.448Z,3.57
2022-08-31T01:02:34.973Z,4.40
2022-08-31T01:05:03.687Z,4.33
2022-08-31T01:07:32.721Z,3.63
2022-08-31T01:10:01.847Z,3.93
2022-08-31T01:12:31.001Z,3.70
2022-08-31T01:15:00.588Z,3.80
2022-08-31T01:17:29.299Z,4.07
2022-08-31T01:20:24.439Z,4.00
2022-08-31T01:23:13.868Z,3.53
2022-08-31T01:25:45.748Z,3.67
2022-08-31T01:28:14.482Z,4.30
2022-08-31T01:30:44.349Z,4.43
2022-08-31T01:33:14.109Z,4.67
2022-08-31T01:35:45.839Z,3.80
2022-08-31T01:38:15.000Z,4.30
2022-08-31T01:40:52.749Z,4.60
2022-08-31T01:43:21.910Z,4.43
2022-08-31T01:45:50.343Z,5.33
2022-08-31T01:48:19.566Z,4.83
2022-08-31T01:50:48.218Z,4.73
2022-08-31T01:53:17.082Z,4.90
2022-08-31T01:55:45.860Z,4.23
2022-08-31T01:58:14.936Z,4.20
2022-08-31T02:00:43.562Z,4.23
2022-08-31T02:03:12.152Z,4.20
2022-08-31T02:05:40.836Z,3.77
2022-08-31T02:08:11.414Z,3.97
2022-08-31T02:10:40.841Z,3.10
2022-08-31T02:13:09.343Z,3.60
2022-08-31T02:15:39.647Z,3.17
2022-08-31T02:18:09.650Z,3.40
2022-08-31T02:20:40.486Z,3.33
2022-08-31T02:23:08.856Z,3.40
2022-08-31T02:25:37.259Z,3.60
2022-08-31T02:28:06.171Z,3.80
2022-08-31T02:30:34.638Z,3.13
2022-08-31T02:33:02.997Z,3.90
2022-08-31T02:35:31.458Z,3.87
2022-08-31T02:37:59.806Z,3.70
2022-08-31T02:40:28.415Z,3.80
2022-08-31T02:42:56.907Z,3.70
2022-08-31T02:45:26.385Z,4.07
2022-08-31T02:47:55.694Z,3.47
2022-08-31T02:50:24.462Z,3.47
2022-08-31T02:52:55.891Z,4.20
2022-08-31T02:55:26.137Z,3.50
2022-08-31T02:57:54.942Z,3.83
2022-08-31T03:00:25.474Z,4.30
2022-08-31T03:02:54.123Z,4.20
2022-08-31T03:05:23.216Z,4.10
2022-08-31T03:07:51.751Z,4.07
2022-08-31T03:10:22.877Z,5.07
2022-08-31T03:12:51.931Z,4.43
2022-08-31T03:15:23.264Z,4.40
2022-08-31T03:17:52.242Z,3.80
2022-08-31T03:20:22.600Z,4.10
2022-08-31T03:22:51.651Z,3.87
2022-08-31T03:25:21.519Z,4.07
2022-08-31T03:27:50.175Z,4.40
2022-08-31T03:30:22.708Z,4.30
2022-08-31T03:32:52.048Z,4.13
2022-08-31T03:35:23.906Z,4.60
2022-08-31T03:37:52.321Z,4.43
2022-08-31T03:40:20.913Z,4.53
2022-08-31T03:42:49.455Z,4.60
2022-08-31T03:45:17.992Z,5.10
2022-08-31T03:47:46.418Z,4.43
2022-08-31T03:50:16.603Z,4.90
2022-08-31T03:52:44.969Z,5.13
2022-08-31T03:55:14.067Z,4.70
2022-08-31T03:57:42.546Z,4.03
2022-08-31T04:00:11.988Z,5.03
2022-08-31T04:02:40.741Z,4.60
2022-08-31T04:05:09.712Z,4.67
2022-08-31T04:07:42.346Z,4.80
2022-08-31T04:10:13.330Z,4.00
2022-08-31T04:12:42.211Z,4.37
2022-08-31T04:15:11.449Z,4.60
2022-08-31T04:17:40.823Z,4.60
2022-08-31T04:20:09.720Z,4.90
2022-08-31T04:22:38.195Z,4.43
2022-08-31T04:25:07.289Z,4.17
2022-08-31T04:27:35.661Z,4.93
2022-08-31T04:30:04.631Z,4.40
2022-08-31T04:32:33.059Z,4.90
2022-08-31T04:35:02.794Z,4.00
2022-08-31T04:37:31.783Z,4.80
2022-08-31T04:40:02.252Z,4.80
2022-08-31T04:42:31.341Z,4.17
2022-08-31T04:45:00.126Z,5.10
2022-08-31T04:47:28.565Z,4.83
2022-08-31T04:49:57.095Z,5.00
2022-08-31T04:52:28.175Z,4.40
2022-08-31T04:54:57.075Z,5.03
2022-08-31T04:57:25.552Z,5.60
2022-08-31T04:59:53.933Z,5.30
2022-08-31T05:02:22.337Z,5.77
2022-08-31T05:04:50.759Z,5.27
2022-08-31T05:07:19.205Z,5.27
2022-08-31T05:09:47.725Z,5.23
2022-08-31T05:12:16.112Z,4.90
2022-08-31T05:14:44.452Z,4.60
2022-08-31T05:17:14.994Z,5.20
2022-08-31T05:19:44.762Z,4.80
2022-08-31T05:22:13.188Z,5.17
2022-08-31T05:24:41.607Z,4.50
2022-08-31T05:27:10.577Z,5.40
2022-08-31T05:29:38.998Z,5.27
2022-08-31T05:32:07.853Z,5.03
2022-08-31T05:34:36.268Z,4.73
2022-08-31T05:37:04.852Z,4.60
2022-08-31T05:39:34.179Z,5.67
2022-08-31T05:42:03.057Z,6.00
2022-08-31T05:44:34.455Z,5.77
2022-08-31T05:47:04.253Z,4.47
2022-08-31T05:49:33.793Z,4.57
2022-08-31T05:52:03.620Z,4.90
2022-08-31T05:54:34.432Z,4.47
2022-08-31T05:57:03.512Z,5.10
2022-08-31T05:59:32.458Z,4.73
2022-08-31T06:02:02.304Z,5.30
2022-08-31T06:04:30.706Z,5.63
2022-08-31T06:06:59.216Z,5.83
2022-08-31T06:09:27.992Z,5.73
2022-08-31T06:11:56.383Z,5.33
2022-08-31T06:14:24.787Z,5.50
2022-08-31T06:16:55.064Z,5.90
2022-08-31T06:19:23.491Z,5.03
2022-08-31T06:21:52.175Z,5.57
2022-08-31T06:24:21.349Z,5.93
2022-08-31T06:26:58.749Z,5.67
2022-08-31T06:29:32.188Z,6.70
2022-08-31T06:32:01.095Z,5.70
2022-08-31T06:34:30.721Z,7.50
2022-08-31T06:36:59.951Z,6.30
2022-08-31T06:39:28.558Z,6.30
2022-08-31T06:41:57.677Z,5.87
2022-08-31T06:44:26.232Z,5.53
2022-08-31T06:46:54.903Z,6.23
2022-08-31T06:49:24.319Z,6.33
2022-08-31T06:51:52.891Z,5.73
2022-08-31T06:54:29.422Z,6.13
2022-08-31T06:56:59.959Z,5.30
2022-08-31T06:59:29.989Z,5.23
2022-08-31T07:02:02.276Z,6.30
2022-08-31T07:04:39.393Z,6.03
2022-08-31T07:07:12.123Z,6.00
2022-08-31T07:09:41.927Z,6.43
2022-08-31T07:12:10.916Z,5.63
2022-08-31T07:14:39.395Z,5.10
2022-08-31T07:17:09.097Z,5.83
2022-08-31T07:19:37.546Z,6.17
2022-08-31T07:22:13.418Z,6.40
2022-08-31T07:24:44.094Z,6.47
2022-08-31T07:27:17.279Z,5.87
2022-08-31T07:29:46.109Z,5.40
2022-08-31T07:32:16.319Z,5.67
2022-08-31T07:34:45.187Z,5.50
2022-08-31T07:37:31.737Z,6.40
2022-08-31T07:40:18.572Z,6.33
2022-08-31T07:42:47.653Z,5.43
2022-08-31T07:45:24.253Z,5.70
2022-08-31T07:47:57.145Z,6.00
2022-08-31T07:50:27.651Z,5.90
2022-08-31T07:52:58.742Z,5.57
2022-08-31T07:55:30.040Z,5.93
2022-08-31T07:57:58.822Z,5.40
2022-08-31T08:00:40.855Z,5.13
2022-08-31T08:03:13.186Z,5.03
2022-08-31T08:05:42.602Z,5.60
2022-08-31T08:08:14.393Z,4.93
2022-08-31T08:10:46.733Z,5.90
2022-08-31T08:13:21.528Z,4.97
2022-08-31T08:15:52.242Z,5.70
2022-08-31T08:18:21.838Z,5.30
2022-08-31T08:20:53.312Z,5.10
2022-08-31T08:23:27.790Z,4.80
2022-08-31T08:26:01.867Z,4.80
2022-08-31T08:28:40.634Z,5.53
2022-08-31T08:31:15.166Z,5.33
2022-08-31T08:33:44.487Z,5.00
2022-08-31T08:36:13.539Z,5.20
2022-08-31T08:38:44.678Z,5.27
2022-08-31T08:41:17.599Z,4.60
2022-08-31T08:43:59.511Z,4.70
2022-08-31T08:46:53.333Z,5.47
2022-08-31T08:49:43.135Z,5.33
2022-08-31T08:52:42.364Z,5.60
2022-08-31T08:55:22.977Z,4.70
2022-08-31T08:57:52.919Z,5.13
2022-08-31T09:00:25.791Z,5.17
2022-08-31T09:03:08.924Z,4.70
2022-08-31T09:05:54.616Z,4.97
2022-08-31T09:09:13.121Z,5.40
2022-08-31T09:12:06.087Z,4.83
2022-08-31T09:15:19.683Z,5.60
2022-08-31T09:17:57.925Z,4.87
2022-08-31T09:20:29.062Z,5.20
2022-08-31T09:22:59.520Z,4.60
2022-08-31T09:25:52.812Z,4.70
2022-08-31T09:28:37.308Z,5.47
2022-08-31T09:31:06.073Z,4.80
2022-08-31T09:33:47.992Z,5.27
2022-08-31T09:36:26.060Z,4.77
2022-08-31T09:38:55.266Z,4.90
2022-08-31T09:41:38.325Z,4.83
2022-08-31T09:44:30.316Z,4.50
2022-08-31T09:47:03.883Z,4.73
2022-08-31T09:49:37.720Z,5.10
2022-08-31T09:52:55.115Z,4.90
2022-08-31T09:55:28.916Z,4.73
2022-08-31T09:57:59.773Z,4.93
2022-08-31T10:00:37.504Z,4.80
2022-08-31T10:03:25.159Z,4.50
2022-08-31T10:05:55.448Z,5.47
2022-08-31T10:08:47.014Z,4.80
2022-08-31T10:11:21.635Z,5.33
2022-08-31T10:14:05.345Z,6.20
2022-08-31T10:16:54.779Z,4.87
2022-08-31T10:19:31.126Z,4.83
2022-08-31T10:22:05.991Z,4.70
2022-08-31T10:24:35.217Z,4.90
2022-08-31T10:27:32.349Z,4.80
2022-08-31T10:30:07.627Z,5.37
2022-08-31T10:33:02.203Z,5.07
2022-08-31T10:35:55.524Z,5.33
2022-08-31T10:38:27.099Z,5.07
2022-08-31T10:41:12.716Z,5.50
2022-08-31T10:44:02.485Z,4.83
2022-08-31T10:46:35.195Z,5.33
2022-08-31T10:49:05.728Z,5.60
2022-08-31T10:52:06.003Z,6.30
2022-08-31T10:55:08.339Z,5.77
2022-08-31T10:57:57.124Z,5.40
2022-08-31T11:00:48.832Z,4.83
2022-08-31T11:03:52.533Z,6.40
2022-08-31T11:06:41.730Z,5.47
2022-08-31T11:09:23.441Z,4.90
2022-08-31T11:11:58.994Z,5.80
2022-08-31T11:15:07.120Z,5.07
2022-08-31T11:17:54.887Z,5.57
2022-08-31T11:20:26.018Z,5.73
2022-08-31T11:23:06.516Z,5.40
2022-08-31T11:26:08.276Z,5.40
2022-08-31T11:29:29.654Z,5.37
2022-08-31T11:32:26.135Z,5.50
2022-08-31T11:34:58.200Z,5.40
2022-08-31T11:37:51.651Z,5.60
2022-08-31T11:40:44.457Z,4.90
2022-08-31T11:43:32.631Z,5.40
2022-08-31T11:46:28.747Z,5.40
2022-08-31T11:48:57.151Z,6.20
2022-08-31T11:51:45.869Z,5.73
2022-08-31T11:54:27.626Z,6.10
2022-08-31T11:56:57.694Z,5.70
2022-08-31T11:59:42.771Z,6.20
2022-08-31T12:02:26.832Z,6.40
2022-08-31T12:04:58.094Z,5.20
2022-08-31T12:07:53.093Z,5.90
2022-08-31T12:11:16.830Z,6.03
2022-08-31T12:13:55.139Z,5.50
2022-08-31T12:16:30.785Z,5.53
2022-08-31T12:19:06.256Z,6.00
2022-08-31T12:22:15.201Z,5.40
2022-08-31T12:24:54.504Z,5.27
2022-08-31T12:27:59.664Z,5.40
2022-08-31T12:30:29.317Z,6.30
2022-08-31T12:33:12.621Z,6.20
2022-08-31T12:35:41.235Z,5.33
2022-08-31T12:38:17.181Z,5.33
2022-08-31T12:40:55.451Z,5.80
2022-08-31T12:43:32.995Z,5.67
2022-08-31T12:46:22.566Z,7.13
2022-08-31T12:49:01.290Z,5.40
2022-08-31T12:51:41.774Z,5.73
2022-08-31T12:54:28.738Z,6.00
2022-08-31T12:57:15.172Z,6.30
2022-08-31T13:00:34.762Z,7.10
2022-08-31T13:03:24.959Z,5.57
2022-08-31T13:06:03.919Z,5.93
2022-08-31T13:08:41.167Z,6.13
2022-08-31T13:11:35.173Z,5.37
2022-08-31T13:14:23.881Z,4.87
2022-08-31T13:17:07.321Z,5.30
2022-08-31T13:19:37.518Z,5.67
2022-08-31T13:22:09.061Z,6.07
2022-08-31T13:24:53.490Z,6.20
2022-08-31T13:27:29.170Z,5.73
2022-08-31T13:30:12.855Z,5.70
2022-08-31T13:32:46.364Z,5.30
2022-08-31T13:35:19.908Z,5.77
2022-08-31T13:38:06.921Z,5.90
2022-08-31T13:40:40.654Z,6.17
2022-08-31T13:43:11.416Z,5.90
2022-08-31T13:45:59.058Z,6.27
2022-08-31T13:48:33.854Z,5.73
2022-08-31T13:51:20.902Z,5.73
2022-08-31T13:53:55.213Z,7.77
2022-08-31T13:56:49.390Z,5.90
2022-08-31T13:59:32.622Z,5.90
2022-08-31T14:02:36.356Z,6.20
2022-08-31T14:05:09.379Z,6.43
2022-08-31T14:07:42.157Z,6.30
2022-08-31T14:10:18.264Z,5.53
2022-08-31T14:13:11.003Z,5.43
2022-08-31T14:15:42.825Z,5.60
2022-08-31T14:18:27.171Z,6.30
2022-08-31T14:21:20.579Z,6.70
2022-08-31T14:24:04.231Z,6.07
2022-08-31T14:26:37.603Z,5.97
2022-08-31T14:29:11.114Z,5.30
2022-08-31T14:31:54.426Z,5.70
2022-08-31T14:34:34.907Z,5.67
2022-08-31T14:37:07.932Z,6.20
2022-08-31T14:39:47.326Z,6.40
2022-08-31T14:42:19.464Z,6.43
2022-08-31T14:45:03.414Z,5.60
2022-08-31T14:47:35.082Z,6.97
2022-08-31T14:50:06.648Z,5.60
2022-08-31T14:52:37.485Z,6.17
2022-08-31T14:55:09.990Z,6.00
2022-08-31T14:57:45.744Z,5.70
2022-08-31T15:00:22.720Z,7.70
2022-08-31T15:02:54.170Z,6.00
2022-08-31T15:05:25.484Z,6.47
2022-08-31T15:07:55.842Z,5.80
2022-08-31T15:10:26.422Z,5.93
2022-08-31T15:12:56.095Z,6.83
2022-08-31T15:15:25.175Z,6.73
2022-08-31T15:17:53.753Z,7.47
2022-08-31T15:20:23.675Z,6.20
2022-08-31T15:22:52.070Z,6.30
2022-08-31T15:25:23.164Z,6.00
2022-08-31T15:27:52.464Z,6.37
2022-08-31T15:30:21.224Z,5.67
2022-08-31T15:32:49.729Z,5.57
2022-08-31T15:35:25.298Z,7.17
2022-08-31T15:38:02.240Z,6.80
2022-08-31T15:40:38.923Z,9.13
2022-08-31T15:43:13.337Z,8.47
2022-08-31T15:45:41.865Z,8.60
2022-08-31T15:48:28.780Z,9.07
2022-08-31T15:51:02.152Z,9.27
2022-08-31T15:53:31.309Z,7.90
2022-08-31T15:56:06.512Z,5.67
2022-08-31T15:58:39.787Z,5.83
2022-08-31T16:01:14.741Z,5.60
2022-08-31T16:03:51.808Z,5.60
2022-08-31T16:06:22.573Z,6.03
2022-08-31T16:08:56.198Z,5.20
2022-08-31T16:11:27.903Z,5.27
2022-08-31T16:13:59.857Z,5.77
2022-08-31T16:16:36.168Z,4.17
2022-08-31T16:19:06.795Z,4.10
2022-08-31T16:21:40.574Z,3.10
2022-08-31T16:24:10.557Z,3.30
2022-08-31T16:26:41.570Z,3.50
2022-08-31T16:29:17.465Z,3.23
2022-08-31T16:31:46.223Z,4.27
2022-08-31T16:34:14.685Z,3.67
2022-08-31T16:36:43.729Z,5.27
2022-08-31T16:39:12.879Z,37.90
2022-08-31T16:41:41.354Z,3.70
2022-08-31T16:44:19.598Z,4.43
2022-08-31T16:46:48.689Z,4.73
2022-08-31T16:49:36.836Z,3.73
2022-08-31T16:52:17.588Z,4.37
2022-08-31T16:54:49.176Z,4.30
2022-08-31T16:57:21.584Z,3.87
2022-08-31T16:59:51.941Z,3.70
2022-08-31T17:02:22.404Z,3.70
2022-08-31T17:04:53.002Z,4.30
2022-08-31T17:07:24.859Z,3.77
2022-08-31T17:09:58.362Z,3.10
2022-08-31T17:12:28.060Z,3.90
2022-08-31T17:14:56.743Z,4.50
2022-08-31T17:17:27.729Z,4.10
2022-08-31T17:19:57.971Z,4.07
2022-08-31T17:22:33.067Z,4.10
2022-08-31T17:25:05.212Z,3.43
2022-08-31T17:27:35.887Z,4.00
2022-08-31T17:30:08.014Z,4.20
2022-08-31T17:32:41.800Z,4.73
2022-08-31T17:35:19.240Z,5.17
2022-08-31T17:37:50.731Z,4.90
2022-08-31T17:40:20.664Z,4.30
2022-08-31T17:42:55.907Z,4.53
2022-08-31T17:45:28.979Z,4.33
2022-08-31T17:47:57.335Z,4.50
2022-08-31T17:50:26.044Z,4.80
2022-08-31T17:52:56.007Z,4.03
2022-08-31T17:55:25.575Z,4.53
2022-08-31T17:57:54.023Z,4.90
2022-08-31T18:00:23.742Z,4.27
2022-08-31T18:02:53.384Z,4.53
2022-08-31T18:05:23.618Z,4.40
2022-08-31T18:07:53.402Z,4.97
2022-08-31T18:10:21.908Z,5.03
2022-08-31T18:12:51.426Z,4.77
2022-08-31T18:15:20.363Z,4.43
2022-08-31T18:17:49.771Z,4.80
2022-08-31T18:20:18.171Z,4.30
2022-08-31T18:22:51.519Z,4.20
2022-08-31T18:25:20.709Z,4.67
2022-08-31T18:27:49.839Z,4.60
2022-08-31T18:30:19.059Z,4.50
2022-08-31T18:32:50.086Z,4.77
2022-08-31T18:35:18.557Z,5.20
2022-08-31T18:37:47.021Z,5.27
2022-08-31T18:40:34.118Z,5.00
2022-08-31T18:43:20.856Z,5.07
2022-08-31T18:45:50.528Z,5.10
2022-08-31T18:48:26.412Z,4.97
2022-08-31T18:50:57.006Z,5.00
2022-08-31T18:53:27.641Z,4.60
2022-08-31T18:56:10.317Z,4.53
2022-08-31T18:58:39.759Z,4.40
2022-08-31T19:01:11.962Z,4.63
2022-08-31T19:03:41.740Z,4.63
2022-08-31T19:06:16.462Z,5.37
2022-08-31T19:08:46.279Z,5.53
2022-08-31T19:11:15.176Z,4.60
2022-08-31T19:13:46.641Z,4.60
2022-08-31T19:16:21.771Z,4.17
2022-08-31T19:18:51.026Z,4.27
2022-08-31T19:21:23.243Z,5.40
2022-08-31T19:23:52.922Z,4.10
2022-08-31T19:26:24.756Z,5.10
2022-08-31T19:28:53.574Z,5.20
2022-08-31T19:31:24.318Z,5.03
2022-08-31T19:33:57.194Z,5.10
2022-08-31T19:36:27.983Z,5.47
2022-08-31T19:38:57.031Z,5.10
2022-08-31T19:41:27.002Z,5.23
2022-08-31T19:44:07.373Z,4.97
2022-08-31T19:46:38.445Z,5.40
2022-08-31T19:49:10.406Z,4.80
2022-08-31T19:51:41.400Z,4.80
2022-08-31T19:54:12.977Z,4.97
2022-08-31T19:56:44.470Z,4.97
2022-08-31T19:59:18.941Z,4.27
2022-08-31T20:01:53.821Z,4.37
2022-08-31T20:04:27.804Z,5.33
2022-08-31T20:06:57.433Z,5.50
2022-08-31T20:09:27.048Z,4.70
2022-08-31T20:11:57.579Z,4.17
2022-08-31T20:14:26.111Z,4.40
2022-08-31T20:16:55.658Z,4.50
2022-08-31T20:19:27.073Z,4.93
2022-08-31T20:22:04.299Z,4.37
2022-08-31T20:24:32.698Z,4.33
2022-08-31T20:27:09.542Z,5.43
2022-08-31T20:29:39.730Z,4.70
2022-08-31T20:32:08.816Z,4.60
2022-08-31T20:34:38.942Z,4.60
2022-08-31T20:37:07.626Z,4.67
2022-08-31T20:39:36.270Z,4.87
2022-08-31T20:42:07.199Z,4.40
2022-08-31T20:44:37.615Z,4.60
2022-08-31T20:47:27.686Z,4.80
2022-08-31T20:50:04.352Z,5.33
2022-08-31T20:52:38.021Z,5.00
2022-08-31T20:55:07.922Z,4.63
2022-08-31T20:57:41.719Z,5.07
2022-08-31T21:00:11.446Z,5.17
2022-08-31T21:02:40.655Z,4.63
2022-08-31T21:05:37.366Z,4.67
2022-08-31T21:08:00.829Z,4.43
2022-08-31T21:10:37.503Z,4.97
2022-08-31T21:13:08.923Z,4.97
2022-08-31T21:15:42.669Z,4.90
2022-08-31T21:18:11.707Z,4.43
2022-08-31T21:20:40.094Z,5.50
2022-08-31T21:23:11.217Z,5.00
2022-08-31T21:25:45.588Z,4.80
2022-08-31T21:28:18.090Z,4.57
2022-08-31T21:30:50.226Z,5.23
2022-08-31T21:33:19.469Z,5.07
2022-08-31T21:35:48.600Z,5.20
2022-08-31T21:38:19.054Z,4.63
2022-08-31T21:40:51.382Z,5.30
2022-08-31T21:43:20.030Z,5.27
2022-08-31T21:45:55.031Z,5.10
2022-08-31T21:48:26.111Z,6.20
2022-08-31T21:50:55.267Z,5.63
2022-08-31T21:53:27.949Z,5.47
2022-08-31T21:55:56.438Z,5.23
2022-08-31T21:58:24.876Z,5.00
2022-08-31T22:00:53.444Z,5.43
2022-08-31T22:03:23.310Z,5.43
2022-08-31T22:05:51.707Z,5.50
2022-08-31T22:08:20.663Z,4.83
2022-08-31T22:10:49.945Z,5.73
2022-08-31T22:13:19.002Z,5.27
2022-08-31T22:15:48.657Z,5.70
2022-08-31T22:18:59.172Z,6.63
2022-08-31T22:21:07.309Z,5.60
2022-08-31T22:23:36.456Z,6.30
2022-08-31T22:26:04.995Z,6.13
2022-08-31T22:28:34.600Z,6.50
2022-08-31T22:31:04.310Z,5.53
2022-08-31T22:33:32.896Z,6.40
2022-08-31T22:36:01.496Z,8.20
2022-08-31T22:38:30.064Z,8.30
2022-08-31T22:40:58.879Z,8.10
2022-08-31T22:43:27.249Z,9.80
2022-08-31T22:45:55.908Z,10.43
2022-08-31T22:48:24.355Z,11.97
2022-08-31T22:50:52.723Z,12.93
2022-08-31T22:53:21.124Z,17.70
2022-08-31T22:55:49.523Z,16.00
2022-08-31T22:58:17.965Z,17.17
2022-08-31T23:00:48.920Z,15.23
2022-08-31T23:03:17.988Z,15.53
2022-08-31T23:05:46.759Z,15.77
2022-08-31T23:08:16.012Z,14.63
2022-08-31T23:10:44.933Z,15.10
2022-08-31T23:13:13.299Z,15.70
2022-08-31T23:15:41.935Z,15.13
2022-08-31T23:18:11.228Z,16.50
2022-08-31T23:20:39.874Z,17.53
2022-08-31T23:23:08.332Z,15.53
2022-08-31T23:25:36.808Z,15.10
2022-08-31T23:28:05.361Z,16.60
2022-08-31T23:30:35.022Z,15.93
2022-08-31T23:33:03.416Z,17.60
2022-08-31T23:35:34.339Z,18.33
2022-08-31T23:38:02.796Z,18.83
2022-08-31T23:40:33.343Z,17.80
2022-08-31T23:43:01.769Z,17.77
2022-08-31T23:45:30.184Z,17.20
2022-08-31T23:47:58.755Z,19.40
2022-08-31T23:50:27.177Z,18.90
2022-08-31T23:52:55.584Z,19.80
2022-08-31T23:55:31.976Z,19.87
2022-08-31T23:58:03.063Z,20.13
